Uniontown, PA (15401)

2:04 AM EST on December 25, 2014 (GMT -0500)
Nick's Weather | Change Station
CLOSE
Current Station
Personal Weather Station
Location: Uniontown, PA
Elevation: 1060 ft
Nearby Weather Stations

Elev 1060 ft 39.90 °N, 79.74 °W | Updated 1 hour ago

Overcast
Overcast
42.7 °F
Feels Like 40 °F
N
5.0
Wind Variable Wind from WSW
Gusts 7.0 mph

Today
High -- | Low -- °F
--% Chance of Precip.
Yesterday
High -- | Low -- °F
Precip. -- in
7:38 AM 4:59 PM
Waxing Crescent, 14% visible
Pressure 29.71 in
Visibility 10.0 miles
Clouds Few 2200 ft
Overcast 2800 ft
Windchill 40 °F
Dew Point 39 °F
Humidity 87%
Rainfall 0.00 in
Snow Depth Not available.
UV 0 out of 12
Pollen .10 out of 12
Air Quality Not available.
Flu Activity Not available.
METAR KMGW 250653Z AUTO 22008KT 10SM FEW022 OVC028 06/02 A2971 RMK AO2 SLP061 T00610017 TSNO

More Conditions Fewer Conditions

Pressure 29.71 in
Visibility 10.0 miles
Clouds Few 2200 ft
Overcast 2800 ft
Windchill 40 °F
Dew Point 39 °F
Humidity 87%
Rainfall 0.00 in
Snow Depth Not available.
UV 0 out of 12
Pollen .10 out of 12
Air Quality Not available.
Flu Activity Not available.
METAR KMGW 250653Z AUTO 22008KT 10SM FEW022 OVC028 06/02 A2971 RMK AO2 SLP061 T00610017 TSNO

More Conditions Fewer Conditions

10-Day Weather Forecast

Almanac

Astronomy

Dec. 25, 2014 Rise Set
Actual Time
Civil Twilight
Nautical Twilight
Astronomical Twilight
Moon
Length of Visible Light
Length of Day
Tomorrow will be .
, % of the Moon is Illuminated

Today's Extremes

State Highs State Lows

Community

WunderPhotos

Upload Photos

1,780,250 photos uploaded!

WunderBlogs® & News

Nearby

Air Quality

  Air Quality AQ Index Pollutant
Not available.

Snow Depth

Station Depth Elevation

Earthquake Activity

City Distance Mag. Time & Date
Minimum magnitude displayed is 2.5.

Coastal Water Temperatures

Place Temperature

Nearby Weather Stations